createdAt,value
2018-12-20T00:00:29.901Z,90.33
2018-12-20T00:01:29.956Z,90.23
2018-12-20T00:02:29.958Z,90.02
2018-12-20T00:03:29.948Z,90.12
2018-12-20T00:04:29.885Z,89.70
2018-12-20T00:05:29.957Z,90.12
2018-12-20T00:06:29.843Z,90.02
2018-12-20T00:07:29.929Z,90.12
2018-12-20T00:08:29.796Z,89.70
2018-12-20T00:09:29.949Z,90.12
2018-12-20T00:10:29.883Z,90.23
2018-12-20T00:11:29.757Z,90.23
2018-12-20T00:12:29.742Z,90.75
2018-12-20T00:13:29.720Z,90.64
2018-12-20T00:14:30.213Z,90.64
2018-12-20T00:15:29.750Z,90.75
2018-12-20T00:16:29.771Z,90.75
2018-12-20T00:17:29.687Z,90.64
2018-12-20T00:18:29.668Z,90.69
2018-12-20T00:19:29.746Z,91.06
2018-12-20T00:20:29.816Z,90.95
2018-12-20T00:21:29.685Z,90.64
2018-12-20T00:22:29.758Z,90.64
2018-12-20T00:23:29.811Z,90.95
2018-12-20T00:24:29.654Z,91.06
2018-12-20T00:25:29.597Z,90.75
2018-12-20T00:26:29.634Z,91.06
2018-12-20T00:27:29.662Z,91.06
2018-12-20T00:28:29.575Z,91.06
2018-12-20T00:29:29.558Z,91.06
2018-12-20T00:30:29.538Z,90.95
2018-12-20T00:31:29.655Z,90.95
2018-12-20T00:32:29.697Z,91.37
2018-12-20T00:33:29.556Z,91.27
2018-12-20T00:34:29.507Z,91.27
2018-12-20T00:35:29.522Z,91.47
2018-12-20T00:36:29.781Z,91.47
2018-12-20T00:37:29.488Z,91.16
2018-12-20T00:38:29.496Z,91.58
2018-12-20T00:39:29.441Z,91.47
2018-12-20T00:40:29.594Z,91.41
2018-12-20T00:41:29.637Z,91.41
2018-12-20T00:42:29.414Z,91.62
2018-12-20T00:43:29.448Z,91.93
2018-12-20T00:44:29.497Z,91.62
2018-12-20T00:45:29.386Z,92.14
2018-12-20T00:46:29.377Z,92.14
2018-12-20T00:47:29.370Z,92.72
2018-12-20T00:48:29.374Z,92.35
2018-12-20T00:49:29.403Z,91.68
2018-12-20T00:50:29.333Z,92.41
2018-12-20T00:51:29.342Z,92.20
2018-12-20T00:52:29.304Z,91.99
2018-12-20T00:53:29.306Z,92.14
2018-12-20T00:54:29.335Z,92.20
2018-12-20T00:55:29.274Z,92.30
2018-12-20T00:56:29.281Z,92.10
2018-12-20T00:57:29.394Z,92.10
2018-12-20T00:58:29.296Z,92.10
2018-12-20T00:59:29.234Z,92.10
2018-12-20T01:00:29.232Z,91.89
2018-12-20T01:01:29.353Z,91.99
2018-12-20T01:02:29.301Z,92.20
2018-12-20T01:03:29.219Z,92.30
2018-12-20T01:04:29.191Z,92.41
2018-12-20T01:05:29.287Z,92.51
2018-12-20T01:06:29.301Z,92.30
2018-12-20T01:07:29.173Z,92.61
2018-12-20T01:08:29.164Z,93.24
2018-12-20T01:09:29.283Z,92.61
2018-12-20T01:10:29.336Z,93.03
2018-12-20T01:11:29.265Z,92.93
2018-12-20T01:12:29.103Z,92.61
2018-12-20T01:13:29.097Z,92.82
2018-12-20T01:14:29.155Z,93.03
2018-12-20T01:15:29.198Z,92.72
2018-12-20T01:16:29.077Z,92.68
2018-12-20T01:17:29.076Z,93.14
2018-12-20T01:18:29.070Z,93.14
2018-12-20T01:19:29.176Z,92.47
2018-12-20T01:20:29.049Z,92.72
2018-12-20T01:21:29.038Z,92.82
2018-12-20T01:22:29.101Z,93.03
2018-12-20T01:23:28.986Z,92.57
2018-12-20T01:24:29.002Z,92.51
2018-12-20T01:25:29.049Z,92.68
2018-12-20T01:26:28.942Z,92.78
2018-12-20T01:27:28.947Z,93.55
2018-12-20T01:28:29.122Z,93.35
2018-12-20T01:29:28.958Z,92.72
2018-12-20T01:30:28.906Z,92.51
2018-12-20T01:31:28.917Z,92.61
2018-12-20T01:32:29.071Z,93.24
2018-12-20T01:33:28.925Z,93.14
2018-12-20T01:34:28.886Z,93.03
2018-12-20T01:35:28.858Z,93.20
2018-12-20T01:36:28.848Z,93.24
2018-12-20T01:37:28.987Z,93.51
2018-12-20T01:38:28.960Z,93.30
2018-12-20T01:39:28.816Z,93.51
2018-12-20T01:40:28.839Z,93.24
2018-12-20T01:41:28.780Z,93.55
2018-12-20T01:42:28.952Z,92.57
2018-12-20T01:43:28.784Z,92.78
2018-12-20T01:44:28.893Z,93.45
2018-12-20T01:45:28.747Z,93.20
2018-12-20T01:46:28.754Z,92.68
2018-12-20T01:47:28.778Z,93.45
2018-12-20T01:48:28.710Z,93.41
2018-12-20T01:49:28.766Z,93.41
2018-12-20T01:50:28.702Z,93.41
2018-12-20T01:51:28.701Z,93.20
2018-12-20T01:52:28.869Z,92.99
2018-12-20T01:53:28.669Z,93.20
2018-12-20T01:54:28.778Z,92.99
2018-12-20T01:55:28.710Z,92.88
2018-12-20T01:56:28.678Z,93.03
2018-12-20T01:57:28.642Z,92.99
2018-12-20T01:58:28.609Z,93.20
2018-12-20T01:59:28.702Z,93.10
2018-12-20T02:00:28.634Z,92.51
2018-12-20T02:01:28.581Z,92.88
2018-12-20T02:02:28.570Z,92.99
2018-12-20T02:03:28.564Z,92.51
2018-12-20T02:04:28.539Z,92.93
2018-12-20T02:05:28.688Z,92.99
2018-12-20T02:06:28.594Z,92.99
2018-12-20T02:07:28.631Z,92.47
2018-12-20T02:08:28.560Z,93.62
2018-12-20T02:09:28.498Z,93.10
2018-12-20T02:10:28.518Z,93.20
2018-12-20T02:11:28.469Z,92.68
2018-12-20T02:12:28.662Z,92.88
2018-12-20T02:13:28.487Z,93.62
2018-12-20T02:14:28.515Z,92.47
2018-12-20T02:15:28.419Z,92.61
2018-12-20T02:16:28.405Z,93.62
2018-12-20T02:17:28.581Z,92.57
2018-12-20T02:18:28.393Z,92.99
2018-12-20T02:19:28.416Z,92.82
2018-12-20T02:20:28.495Z,92.88
2018-12-20T02:21:28.367Z,92.99
2018-12-20T02:22:28.368Z,93.03
2018-12-20T02:23:28.521Z,92.99
2018-12-20T02:24:28.334Z,93.24
2018-12-20T02:25:28.309Z,93.03
2018-12-20T02:26:28.313Z,92.93
2018-12-20T02:27:28.309Z,93.03
2018-12-20T02:28:28.362Z,93.24
2018-12-20T02:29:28.547Z,93.03
2018-12-20T02:30:28.281Z,93.35
2018-12-20T02:31:28.507Z,93.66
2018-12-20T02:32:28.419Z,93.55
2018-12-20T02:33:28.368Z,93.55
2018-12-20T02:34:28.416Z,93.66
2018-12-20T02:35:28.450Z,93.55
2018-12-20T02:36:28.296Z,93.55
2018-12-20T02:37:28.286Z,94.07
2018-12-20T02:38:28.338Z,95.11
2018-12-20T02:39:28.185Z,93.97
2018-12-20T02:40:28.310Z,95.01
2018-12-20T02:41:28.157Z,94.70
2018-12-20T02:42:28.199Z,94.43
2018-12-20T02:43:28.142Z,94.80
2018-12-20T02:44:28.120Z,94.43
2018-12-20T02:45:28.123Z,94.90
2018-12-20T02:46:28.097Z,94.90
2018-12-20T02:47:28.110Z,94.64
2018-12-20T02:48:28.078Z,94.70
2018-12-20T02:49:28.448Z,94.84
2018-12-20T02:50:28.164Z,94.84
2018-12-20T02:51:28.047Z,94.90
2018-12-20T02:52:28.166Z,94.59
2018-12-20T02:53:28.254Z,94.80
2018-12-20T02:54:28.018Z,94.59
2018-12-20T02:55:28.017Z,94.59
2018-12-20T02:56:28.014Z,94.49
2018-12-20T02:57:28.004Z,94.70
2018-12-20T02:58:28.009Z,94.80
2018-12-20T02:59:28.147Z,94.70
2018-12-20T03:00:28.123Z,94.80
2018-12-20T03:01:27.924Z,94.80
2018-12-20T03:02:27.930Z,94.84
2018-12-20T03:03:27.985Z,94.64
2018-12-20T03:04:28.056Z,94.53
2018-12-20T03:05:27.884Z,94.80
2018-12-20T03:06:27.888Z,94.80
2018-12-20T03:07:27.869Z,94.49
2018-12-20T03:08:27.862Z,94.70
2018-12-20T03:09:27.840Z,94.70
2018-12-20T03:10:27.840Z,94.70
2018-12-20T03:11:27.818Z,94.59
2018-12-20T03:12:27.966Z,94.84
2018-12-20T03:13:29.678Z,94.59
2018-12-20T03:14:27.794Z,94.90
2018-12-20T03:15:27.900Z,95.01
2018-12-20T03:16:27.774Z,94.70
2018-12-20T03:17:27.759Z,94.90
2018-12-20T03:18:28.076Z,95.11
2018-12-20T03:19:27.878Z,94.49
2018-12-20T03:20:27.931Z,95.11
2018-12-20T03:21:27.801Z,94.90
2018-12-20T03:22:27.741Z,95.11
2018-12-20T03:23:27.811Z,95.01
2018-12-20T03:24:27.759Z,94.80
2018-12-20T03:25:27.802Z,94.84
2018-12-20T03:26:27.862Z,94.53
2018-12-20T03:27:27.678Z,94.74
2018-12-20T03:28:27.765Z,94.74
2018-12-20T03:29:27.719Z,95.05
2018-12-20T03:30:27.754Z,95.05
2018-12-20T03:31:27.816Z,94.70
2018-12-20T03:32:27.605Z,94.84
2018-12-20T03:33:27.599Z,94.64
2018-12-20T03:34:27.597Z,94.70
2018-12-20T03:35:27.624Z,94.43
2018-12-20T03:36:27.557Z,95.11
2018-12-20T03:37:27.555Z,94.95
2018-12-20T03:38:27.721Z,95.11
2018-12-20T03:39:27.522Z,95.01
2018-12-20T03:40:27.522Z,94.95
2018-12-20T03:41:27.505Z,95.47
2018-12-20T03:42:27.486Z,95.47
2018-12-20T03:43:27.564Z,95.63
2018-12-20T03:44:27.502Z,95.11
2018-12-20T03:45:29.049Z,95.42
2018-12-20T03:46:27.521Z,95.36
2018-12-20T03:47:27.474Z,95.47
2018-12-20T03:48:27.431Z,95.57
2018-12-20T03:49:27.513Z,95.67
2018-12-20T03:50:27.625Z,95.47
2018-12-20T03:51:27.562Z,95.57
2018-12-20T03:52:27.437Z,95.57
2018-12-20T03:53:27.367Z,95.67
2018-12-20T03:54:27.562Z,95.89
2018-12-20T03:55:27.360Z,95.57
2018-12-20T03:56:27.426Z,95.78
2018-12-20T03:57:27.356Z,95.47
2018-12-20T03:58:27.560Z,95.57
2018-12-20T03:59:27.309Z,95.42
2018-12-20T04:00:27.479Z,95.42
2018-12-20T04:01:27.298Z,95.32
2018-12-20T04:02:27.386Z,95.47
2018-12-20T04:03:27.485Z,95.47
2018-12-20T04:04:27.577Z,95.42
2018-12-20T04:05:27.357Z,95.53
2018-12-20T04:06:27.552Z,95.47
2018-12-20T04:07:27.533Z,95.67
2018-12-20T04:08:27.255Z,95.47
2018-12-20T04:09:27.549Z,95.42
2018-12-20T04:10:27.351Z,95.57
2018-12-20T04:11:27.213Z,95.63
2018-12-20T04:12:27.225Z,95.78
2018-12-20T04:13:27.456Z,95.26
2018-12-20T04:14:27.217Z,95.47
2018-12-20T04:15:27.256Z,95.42
2018-12-20T04:16:27.397Z,95.42
2018-12-20T04:17:27.261Z,95.42
2018-12-20T04:18:27.220Z,95.47
2018-12-20T04:19:27.174Z,95.47
2018-12-20T04:20:27.178Z,95.53
2018-12-20T04:21:27.073Z,95.47
2018-12-20T04:22:27.055Z,95.67
2018-12-20T04:23:27.048Z,95.63
2018-12-20T04:24:27.130Z,95.53
2018-12-20T04:25:27.071Z,95.84
2018-12-20T04:26:27.209Z,95.63
2018-12-20T04:27:27.301Z,95.57
2018-12-20T04:28:27.011Z,95.53
2018-12-20T04:29:26.994Z,95.78
2018-12-20T04:30:27.126Z,95.53
2018-12-20T04:31:26.963Z,95.42
2018-12-20T04:32:27.029Z,95.53
2018-12-20T04:33:27.000Z,95.47
2018-12-20T04:34:27.183Z,95.42
2018-12-20T04:35:27.012Z,95.42
2018-12-20T04:36:26.903Z,95.47
2018-12-20T04:37:27.126Z,95.63
2018-12-20T04:38:27.095Z,95.42
2018-12-20T04:39:26.900Z,95.01
2018-12-20T04:40:27.217Z,95.11
2018-12-20T04:41:27.078Z,94.80
2018-12-20T04:42:26.845Z,95.01
2018-12-20T04:43:27.109Z,94.90
2018-12-20T04:44:26.863Z,95.11
2018-12-20T04:45:26.822Z,95.01
2018-12-20T04:46:26.902Z,95.01
2018-12-20T04:47:26.864Z,94.90
2018-12-20T04:48:26.785Z,94.90
2018-12-20T04:49:26.774Z,95.01
2018-12-20T04:50:26.862Z,95.11
2018-12-20T04:51:26.895Z,95.11
2018-12-20T04:52:26.938Z,95.01
2018-12-20T04:53:26.736Z,95.47
2018-12-20T04:54:26.759Z,95.36
2018-12-20T04:55:26.736Z,95.53
2018-12-20T04:56:26.755Z,95.63
2018-12-20T04:57:26.865Z,95.42
2018-12-20T04:58:26.713Z,95.47
2018-12-20T04:59:26.846Z,95.63
2018-12-20T05:00:26.689Z,95.42
2018-12-20T05:01:26.642Z,95.73
2018-12-20T05:02:26.910Z,95.89
2018-12-20T05:03:26.762Z,95.47
2018-12-20T05:04:26.620Z,95.57
2018-12-20T05:05:26.657Z,95.42
2018-12-20T05:06:26.607Z,95.42
2018-12-20T05:07:26.571Z,95.47
2018-12-20T05:08:26.702Z,95.42
2018-12-20T05:09:26.600Z,95.47
2018-12-20T05:10:26.713Z,95.57
2018-12-20T05:11:26.558Z,95.21
2018-12-20T05:12:26.534Z,95.36
2018-12-20T05:13:26.601Z,95.47
2018-12-20T05:14:26.838Z,95.47
2018-12-20T05:15:26.781Z,95.73
2018-12-20T05:16:26.497Z,95.42
2018-12-20T05:17:26.517Z,95.57
2018-12-20T05:18:26.875Z,95.57
2018-12-20T05:19:26.574Z,95.36
2018-12-20T05:20:26.753Z,95.67
2018-12-20T05:21:26.619Z,95.01
2018-12-20T05:22:26.425Z,95.73
2018-12-20T05:23:26.462Z,95.53
2018-12-20T05:24:26.620Z,95.67
2018-12-20T05:25:26.640Z,96.30
2018-12-20T05:26:26.739Z,96.61
2018-12-20T05:27:26.362Z,96.36
2018-12-20T05:28:26.344Z,96.57
2018-12-20T05:29:26.358Z,96.51
2018-12-20T05:30:26.340Z,95.94
2018-12-20T05:31:26.336Z,95.63
2018-12-20T05:32:26.362Z,95.73
2018-12-20T05:33:26.292Z,95.53
2018-12-20T05:34:26.528Z,95.42
2018-12-20T05:35:26.516Z,95.11
2018-12-20T05:36:26.329Z,95.63
2018-12-20T05:37:26.265Z,95.42
2018-12-20T05:38:26.268Z,95.47
2018-12-20T05:39:26.498Z,95.42
2018-12-20T05:40:26.220Z,95.53
2018-12-20T05:41:26.256Z,95.89
2018-12-20T05:42:26.456Z,95.78
2018-12-20T05:43:26.264Z,95.63
2018-12-20T05:44:26.276Z,95.57
2018-12-20T05:45:26.161Z,95.53
2018-12-20T05:46:26.314Z,95.67
2018-12-20T05:47:26.161Z,95.67
2018-12-20T05:48:26.296Z,95.53
2018-12-20T05:49:26.188Z,95.36
2018-12-20T05:50:26.133Z,95.47
2018-12-20T05:51:26.295Z,95.53
2018-12-20T05:52:26.088Z,95.47
2018-12-20T05:53:26.277Z,95.67
2018-12-20T05:54:26.249Z,95.67
2018-12-20T05:55:26.116Z,95.73
2018-12-20T05:56:26.053Z,95.63
2018-12-20T05:57:26.037Z,95.78
2018-12-20T05:58:26.247Z,95.63
2018-12-20T05:59:26.026Z,95.63
2018-12-20T06:00:26.080Z,96.09
2018-12-20T06:01:26.001Z,95.21
2018-12-20T06:02:25.992Z,95.67
2018-12-20T06:03:26.037Z,95.42
2018-12-20T06:04:26.220Z,95.67
2018-12-20T06:05:25.957Z,95.57
2018-12-20T06:06:25.967Z,95.84
2018-12-20T06:07:25.940Z,95.78
2018-12-20T06:08:25.912Z,95.67
2018-12-20T06:09:26.091Z,95.53
2018-12-20T06:10:25.939Z,95.57
2018-12-20T06:11:25.905Z,95.15
2018-12-20T06:12:25.894Z,95.26
2018-12-20T06:13:26.020Z,95.63
2018-12-20T06:14:26.002Z,95.36
2018-12-20T06:15:26.132Z,95.67
2018-12-20T06:16:25.842Z,95.63
2018-12-20T06:17:26.059Z,95.63
2018-12-20T06:18:25.833Z,95.57
2018-12-20T06:19:25.927Z,95.47
2018-12-20T06:20:25.784Z,95.42
2018-12-20T06:21:25.816Z,95.11
2018-12-20T06:22:25.762Z,95.01
2018-12-20T06:23:25.924Z,95.26
2018-12-20T06:24:25.763Z,94.90
2018-12-20T06:25:25.734Z,95.05
2018-12-20T06:26:25.718Z,94.84
2018-12-20T06:27:25.729Z,95.47
2018-12-20T06:28:25.707Z,95.47
2018-12-20T06:29:25.704Z,95.11
2018-12-20T06:30:25.697Z,95.32
2018-12-20T06:31:25.670Z,95.67
2018-12-20T06:32:25.673Z,95.73
2018-12-20T06:33:25.742Z,95.67
2018-12-20T06:34:25.685Z,95.73
2018-12-20T06:35:25.643Z,96.30
2018-12-20T06:36:25.613Z,96.09
2018-12-20T06:37:25.624Z,95.57
2018-12-20T06:38:25.621Z,95.42
2018-12-20T06:39:25.591Z,95.67
2018-12-20T06:40:25.573Z,95.63
2018-12-20T06:41:25.568Z,95.47
2018-12-20T06:42:25.561Z,95.32
2018-12-20T06:43:25.544Z,95.47
2018-12-20T06:44:25.537Z,95.47
2018-12-20T06:45:25.526Z,95.73
2018-12-20T06:46:25.505Z,95.42
2018-12-20T06:47:25.496Z,95.47
2018-12-20T06:48:25.538Z,95.15
2018-12-20T06:49:25.494Z,95.57
2018-12-20T06:50:33.455Z,95.47
2018-12-20T06:51:33.010Z,95.11
2018-12-20T06:52:33.024Z,95.36
2018-12-20T06:53:32.540Z,95.78
2018-12-20T06:54:33.122Z,95.57
2018-12-20T06:55:32.481Z,95.57
2018-12-20T06:56:25.402Z,95.57
2018-12-20T06:57:25.402Z,95.36
2018-12-20T06:58:25.382Z,95.26
2018-12-20T06:59:25.406Z,95.67
2018-12-20T07:00:25.361Z,95.15
2018-12-20T07:01:25.348Z,95.36
2018-12-20T07:02:25.350Z,95.78
2018-12-20T07:03:25.329Z,96.09
2018-12-20T07:04:25.315Z,96.09
2018-12-20T07:05:25.328Z,96.61
2018-12-20T07:06:25.300Z,96.72
2018-12-20T07:07:25.291Z,96.51
2018-12-20T07:08:25.282Z,96.72
2018-12-20T07:09:25.281Z,96.72
2018-12-20T07:10:25.257Z,96.51
2018-12-20T07:11:25.252Z,96.61
2018-12-20T07:12:25.233Z,96.61
2018-12-20T07:13:25.222Z,96.09
2018-12-20T07:14:25.210Z,95.57
2018-12-20T07:15:25.214Z,95.67
2018-12-20T07:16:29.232Z,95.47
2018-12-20T07:17:25.172Z,95.67
2018-12-20T07:18:25.161Z,95.47
2018-12-20T07:19:25.151Z,95.78
2018-12-20T07:20:25.160Z,95.67
2018-12-20T07:21:25.130Z,95.57
2018-12-20T07:22:25.130Z,95.47
2018-12-20T07:23:25.112Z,95.36
2018-12-20T07:24:25.107Z,95.57
2018-12-20T07:25:25.092Z,95.47
2018-12-20T07:26:25.116Z,95.57
2018-12-20T07:27:25.075Z,95.26
2018-12-20T07:28:25.067Z,94.95
2018-12-20T07:29:25.062Z,95.05
2018-12-20T07:30:25.032Z,95.26
2018-12-20T07:31:25.022Z,95.26
2018-12-20T07:32:25.554Z,95.15
2018-12-20T07:33:25.015Z,95.15
2018-12-20T07:34:25.022Z,95.15
2018-12-20T07:35:24.984Z,95.15
2018-12-20T07:36:24.981Z,95.05
2018-12-20T07:37:24.971Z,94.95
2018-12-20T07:38:24.948Z,94.95
2018-12-20T07:39:24.940Z,95.15
2018-12-20T07:40:24.937Z,95.15
2018-12-20T07:41:24.934Z,94.84
2018-12-20T07:42:24.921Z,95.15
2018-12-20T07:43:24.909Z,94.84
2018-12-20T07:44:24.884Z,95.15
2018-12-20T07:45:24.880Z,95.15
2018-12-20T07:46:24.876Z,95.26
2018-12-20T07:47:24.892Z,95.05
2018-12-20T07:48:31.896Z,95.26
2018-12-20T07:49:25.841Z,95.15
2018-12-20T07:50:24.852Z,95.15
2018-12-20T07:51:25.558Z,95.15
2018-12-20T07:52:24.811Z,95.05
2018-12-20T07:53:24.833Z,94.95
2018-12-20T07:54:24.774Z,94.53
2018-12-20T07:55:24.771Z,94.43
2018-12-20T07:56:24.770Z,94.74
2018-12-20T07:57:24.988Z,94.64
2018-12-20T07:58:24.745Z,94.64
2018-12-20T07:59:24.730Z,94.84
2018-12-20T08:00:24.722Z,94.84
2018-12-20T08:01:24.705Z,94.74
2018-12-20T08:02:24.707Z,94.84
2018-12-20T08:03:24.693Z,94.95
2018-12-20T08:04:24.666Z,94.84
2018-12-20T08:05:24.658Z,94.64
2018-12-20T08:06:24.653Z,94.53
2018-12-20T08:07:24.639Z,94.74
2018-12-20T08:08:24.649Z,94.43
2018-12-20T08:09:24.616Z,94.38
2018-12-20T08:10:24.618Z,94.95
2018-12-20T08:11:24.625Z,94.53
2018-12-20T08:12:24.598Z,95.05
2018-12-20T08:13:24.575Z,94.80
2018-12-20T08:14:24.577Z,95.05
2018-12-20T08:15:24.553Z,94.70
2018-12-20T08:16:24.554Z,94.64
2018-12-20T08:17:24.555Z,94.07
2018-12-20T08:18:24.528Z,93.97
2018-12-20T08:19:24.520Z,93.45
2018-12-20T08:20:24.524Z,93.45
2018-12-20T08:21:24.500Z,93.55
2018-12-20T08:22:24.489Z,93.39
2018-12-20T08:23:24.468Z,93.55
2018-12-20T08:24:24.468Z,93.45
2018-12-20T08:25:24.442Z,93.60
2018-12-20T08:26:24.442Z,93.66
2018-12-20T08:27:24.438Z,93.66
2018-12-20T08:28:24.428Z,93.55
2018-12-20T08:29:24.403Z,93.55
2018-12-20T08:30:24.388Z,93.35
2018-12-20T08:31:24.399Z,93.14
2018-12-20T08:32:24.377Z,93.35
2018-12-20T08:33:24.368Z,93.14
2018-12-20T08:34:24.444Z,93.10
2018-12-20T08:35:24.335Z,92.82
2018-12-20T08:36:24.342Z,93.20
2018-12-20T08:37:24.317Z,93.03
2018-12-20T08:38:24.307Z,93.41
2018-12-20T08:39:24.323Z,93.55
2018-12-20T08:40:24.302Z,93.66
2018-12-20T08:41:24.290Z,93.41
2018-12-20T08:42:24.277Z,93.41
2018-12-20T08:43:24.251Z,93.03
2018-12-20T08:44:24.256Z,93.24
2018-12-20T08:45:24.234Z,93.10
2018-12-20T08:46:24.264Z,93.62
2018-12-20T08:47:24.213Z,92.93
2018-12-20T08:48:24.197Z,92.78
2018-12-20T08:49:24.196Z,92.68
2018-12-20T08:50:24.186Z,92.78
2018-12-20T08:51:24.175Z,92.57
2018-12-20T08:52:24.173Z,92.68
2018-12-20T08:53:24.149Z,92.61
2018-12-20T08:54:24.142Z,92.88
2018-12-20T08:55:24.128Z,92.99
2018-12-20T08:56:24.129Z,92.47
2018-12-20T08:57:24.112Z,92.57
2018-12-20T08:58:24.115Z,92.36
2018-12-20T08:59:24.079Z,92.26
2018-12-20T09:00:24.075Z,92.16
2018-12-20T09:01:24.073Z,92.05
2018-12-20T09:02:24.066Z,92.47
2018-12-20T09:03:24.045Z,93.10
2018-12-20T09:04:24.027Z,93.47
2018-12-20T09:05:24.032Z,92.94
2018-12-20T09:06:24.019Z,92.01
2018-12-20T09:07:24.014Z,91.80
2018-12-20T09:08:25.397Z,93.74
2018-12-20T09:09:23.977Z,93.32
2018-12-20T09:10:23.961Z,91.97
2018-12-20T09:11:23.979Z,92.03
2018-12-20T09:12:23.945Z,91.10
2018-12-20T09:13:23.946Z,90.41
2018-12-20T09:14:23.935Z,90.17
2018-12-20T09:15:23.918Z,89.96
2018-12-20T09:16:23.925Z,90.17
2018-12-20T09:17:23.901Z,89.79
2018-12-20T09:18:23.874Z,90.10
2018-12-20T09:19:23.892Z,90.06
2018-12-20T09:20:23.860Z,90.06
2018-12-20T09:21:23.857Z,90.10
2018-12-20T09:22:23.848Z,90.52
2018-12-20T09:23:23.870Z,90.41
2018-12-20T09:24:23.825Z,90.52
2018-12-20T09:25:23.814Z,90.52
2018-12-20T09:26:23.819Z,90.31
2018-12-20T09:27:23.781Z,90.62
2018-12-20T09:28:23.783Z,90.41
2018-12-20T09:29:23.782Z,90.93
2018-12-20T09:30:30.451Z,91.03
2018-12-20T09:31:24.746Z,91.49
2018-12-20T09:32:23.738Z,91.35
2018-12-20T09:33:23.718Z,90.93
2018-12-20T09:34:23.730Z,91.14
2018-12-20T09:35:23.707Z,91.35
2018-12-20T09:36:23.683Z,91.35
2018-12-20T09:37:23.675Z,90.83
2018-12-20T09:38:23.665Z,90.93
2018-12-20T09:39:23.666Z,91.14
2018-12-20T09:40:23.653Z,90.93
2018-12-20T09:41:23.627Z,90.93
2018-12-20T09:42:23.616Z,91.03
2018-12-20T09:43:24.878Z,90.83
2018-12-20T09:44:23.699Z,91.14
2018-12-20T09:45:23.599Z,91.03
2018-12-20T09:46:23.583Z,90.93
2018-12-20T09:47:23.564Z,90.72
2018-12-20T09:48:23.552Z,90.93
2018-12-20T09:49:23.547Z,90.93
2018-12-20T09:50:23.601Z,90.89
2018-12-20T09:51:23.535Z,90.89
2018-12-20T09:52:23.518Z,90.48
2018-12-20T09:53:23.514Z,90.48
2018-12-20T09:54:23.504Z,90.37
2018-12-20T09:55:23.482Z,90.17
2018-12-20T09:56:23.505Z,90.37
2018-12-20T09:57:23.456Z,90.37
2018-12-20T09:58:23.450Z,90.58
2018-12-20T09:59:23.444Z,90.58
2018-12-20T10:00:23.428Z,90.37
2018-12-20T10:01:23.431Z,90.06
2018-12-20T10:02:23.433Z,90.06
2018-12-20T10:03:25.144Z,89.40
2018-12-20T10:04:23.398Z,89.86
2018-12-20T10:05:23.374Z,89.54
2018-12-20T10:06:23.365Z,89.96
2018-12-20T10:07:23.362Z,89.96
2018-12-20T10:08:23.360Z,90.06
2018-12-20T10:09:31.564Z,89.65
2018-12-20T10:10:23.320Z,89.61
2018-12-20T10:11:23.319Z,89.96
2018-12-20T10:12:23.308Z,89.81
2018-12-20T10:13:23.309Z,89.92
2018-12-20T10:14:23.271Z,89.81
2018-12-20T10:15:23.280Z,89.65
2018-12-20T10:16:23.260Z,89.23
2018-12-20T10:17:23.257Z,89.81
2018-12-20T10:18:23.243Z,89.81
2018-12-20T10:19:23.222Z,89.44
2018-12-20T10:20:23.216Z,89.81
2018-12-20T10:21:23.196Z,89.96
2018-12-20T10:22:23.200Z,89.92
2018-12-20T10:23:23.189Z,88.88
2018-12-20T10:24:23.182Z,89.50
2018-12-20T10:25:23.161Z,89.61
2018-12-20T10:26:23.157Z,88.78
2018-12-20T10:27:31.198Z,89.40
2018-12-20T10:28:24.135Z,89.09
2018-12-20T10:29:23.109Z,88.73
2018-12-20T10:30:23.115Z,88.53
2018-12-20T10:31:23.089Z,88.46
2018-12-20T10:32:23.088Z,88.63
2018-12-20T10:33:23.184Z,88.53
2018-12-20T10:34:23.056Z,88.01
2018-12-20T10:35:23.061Z,88.21
2018-12-20T10:36:23.039Z,88.21
2018-12-20T10:37:23.039Z,88.21
2018-12-20T10:38:23.055Z,88.21
2018-12-20T10:39:23.013Z,88.11
2018-12-20T10:40:22.997Z,88.32
2018-12-20T10:41:22.995Z,88.18
2018-12-20T10:42:22.985Z,88.32
2018-12-20T10:43:22.977Z,88.32
2018-12-20T10:44:22.958Z,88.07
2018-12-20T10:45:22.938Z,88.21
2018-12-20T10:46:22.993Z,88.01
2018-12-20T10:47:28.896Z,88.21
2018-12-20T10:48:23.910Z,88.11
2018-12-20T10:49:22.906Z,88.21
2018-12-20T10:50:22.895Z,88.11
2018-12-20T10:51:22.881Z,88.21
2018-12-20T10:52:22.886Z,88.07
2018-12-20T10:53:22.864Z,87.87
2018-12-20T10:54:22.848Z,88.07
2018-12-20T10:55:22.832Z,89.73
2018-12-20T10:56:22.871Z,89.42
2018-12-20T10:57:22.829Z,90.04
2018-12-20T10:58:22.820Z,90.10
2018-12-20T10:59:22.804Z,89.79
2018-12-20T11:00:22.798Z,89.07
2018-12-20T11:01:22.772Z,88.13
2018-12-20T11:02:22.817Z,87.20
2018-12-20T11:03:22.750Z,87.16
2018-12-20T11:04:22.745Z,87.37
2018-12-20T11:05:22.732Z,86.85
2018-12-20T11:06:22.736Z,86.68
2018-12-20T11:07:22.719Z,86.37
2018-12-20T11:08:22.715Z,86.47
2018-12-20T11:09:22.687Z,86.65
2018-12-20T11:10:22.680Z,86.79
2018-12-20T11:11:22.667Z,86.89
2018-12-20T11:12:22.660Z,86.89
2018-12-20T11:13:22.653Z,86.99
2018-12-20T11:14:22.632Z,86.89
2018-12-20T11:15:22.616Z,86.79
2018-12-20T11:16:22.620Z,86.79
2018-12-20T11:17:22.613Z,87.41
2018-12-20T11:18:22.613Z,87.20
2018-12-20T11:19:22.589Z,87.51
2018-12-20T11:20:22.569Z,87.20
2018-12-20T11:21:22.561Z,86.99
2018-12-20T11:22:22.543Z,87.30
2018-12-20T11:23:22.529Z,87.10
2018-12-20T11:24:22.562Z,87.72
2018-12-20T11:25:22.508Z,87.30
2018-12-20T11:26:22.515Z,88.13
2018-12-20T11:27:22.491Z,88.03
2018-12-20T11:28:22.482Z,88.13
2018-12-20T11:29:22.477Z,88.13
2018-12-20T11:30:22.469Z,88.24
2018-12-20T11:31:22.463Z,88.45
2018-12-20T11:32:22.445Z,88.24
2018-12-20T11:33:22.434Z,88.03
2018-12-20T11:34:22.432Z,88.03
2018-12-20T11:35:22.417Z,87.93
2018-12-20T11:36:22.400Z,88.24
2018-12-20T11:37:22.395Z,88.55
2018-12-20T11:38:22.380Z,88.55
2018-12-20T11:39:22.364Z,88.03
2018-12-20T11:40:22.394Z,88.55
2018-12-20T11:41:22.343Z,89.69
2018-12-20T11:42:22.342Z,88.34
2018-12-20T11:43:22.319Z,88.45
2018-12-20T11:44:22.324Z,88.55
2018-12-20T11:45:22.310Z,88.13
2018-12-20T11:46:22.303Z,88.03
2018-12-20T11:47:22.288Z,88.45
2018-12-20T11:48:22.274Z,88.45
2018-12-20T11:49:22.261Z,88.45
2018-12-20T11:50:22.258Z,88.34
2018-12-20T11:51:22.260Z,88.45
2018-12-20T11:52:22.233Z,87.82
2018-12-20T11:53:22.224Z,88.13
2018-12-20T11:54:22.213Z,88.51
2018-12-20T11:55:22.198Z,88.45
2018-12-20T11:56:22.198Z,88.13
2018-12-20T11:57:22.193Z,87.82
2018-12-20T11:58:22.160Z,88.34
2018-12-20T11:59:22.154Z,88.20
2018-12-20T12:00:22.146Z,88.51
2018-12-20T12:01:22.145Z,87.99
2018-12-20T12:02:24.656Z,88.09
2018-12-20T12:03:22.111Z,88.09
2018-12-20T12:04:22.105Z,88.61
2018-12-20T12:05:22.167Z,88.09
2018-12-20T12:06:22.112Z,87.78
2018-12-20T12:07:22.072Z,87.23
2018-12-20T12:08:22.057Z,86.75
2018-12-20T12:09:22.047Z,86.71
2018-12-20T12:10:22.030Z,86.40
2018-12-20T12:11:22.021Z,86.25
2018-12-20T12:12:22.023Z,86.09
2018-12-20T12:13:22.003Z,86.29
2018-12-20T12:14:21.991Z,87.23
2018-12-20T12:15:21.986Z,87.12
2018-12-20T12:16:21.975Z,86.67
2018-12-20T12:17:21.965Z,86.50
2018-12-20T12:18:21.962Z,86.50
2018-12-20T12:19:21.951Z,86.91
2018-12-20T12:20:21.929Z,86.19
2018-12-20T12:21:21.921Z,86.71
2018-12-20T12:22:21.899Z,86.91
2018-12-20T12:23:21.910Z,86.91
2018-12-20T12:24:21.877Z,88.36
2018-12-20T12:25:21.872Z,88.26
2018-12-20T12:26:21.867Z,87.43
2018-12-20T12:27:21.856Z,87.33
2018-12-20T12:28:21.848Z,87.74
2018-12-20T12:29:21.825Z,86.81
2018-12-20T12:30:21.808Z,87.43
2018-12-20T12:31:21.800Z,87.27
2018-12-20T12:32:21.796Z,87.47
2018-12-20T12:33:21.803Z,87.06
2018-12-20T12:34:21.769Z,87.88
2018-12-20T12:35:21.771Z,87.23
2018-12-20T12:36:21.742Z,88.20
2018-12-20T12:37:21.736Z,88.51
2018-12-20T12:38:21.740Z,88.51
2018-12-20T12:39:21.710Z,87.95
2018-12-20T12:40:21.700Z,88.46
2018-12-20T12:41:21.700Z,87.85
2018-12-20T12:42:21.677Z,87.54
2018-12-20T12:43:21.727Z,87.99
2018-12-20T12:44:21.665Z,86.81
2018-12-20T12:45:21.648Z,88.06
2018-12-20T12:46:21.647Z,88.16
2018-12-20T12:47:21.640Z,88.16
2018-12-20T12:48:21.619Z,87.95
2018-12-20T12:49:21.615Z,88.46
2018-12-20T12:50:21.613Z,87.23
2018-12-20T12:51:21.585Z,87.23
2018-12-20T12:52:21.613Z,88.26